Terminal Aerodrome Forecast
Issued by NWS Newport/Morehead City, NC

Home | Current Version | Previous Version | Text Only | Print | Product List | Glossary Off
Versions: 1 2 3 4 5 6 7 8 9 10 11 12 13 14 15 16 17 18 19 20 21 22 23 24 25 26

000
FTUS42 KMHX 270900 AAE
TAFEWN
TAF AMD
KEWN 270957Z 2710/2806 00000KT 5SM BR SCT002
      TEMPO 2710/2712 1/2SM FG VV002
     FM271300 22003KT P6SM SCT250=

USA.gov is the U.S. government's official web portal to all federal, state and local government web resources and services.